Time;durP1;ratioP1;P1;durP2;ratioP2;P2;SDS_P1;SDS_P2;PMS_P1;PMS_P2;Temp;Humidity;BMP_temperature;BMP_pressure;BME280_temperature;BME280_humidity;BME280_pressure;Samples;Min_cycle;Max_cycle;Signal;HPM_P1;HPM_P2
2023/04/10 00:00:40;;;;;;;7.18;4.28;;;;;;;;;;5036759;28;20212;-43
2023/04/10 00:03:20;;;;;;;6.65;3.67;;;;;;;;;;5036511;28;20204;-44
2023/04/10 00:05:48;;;;;;;10.93;5.35;;;;;;;;;;5016719;28;20206;-44
2023/04/10 00:08:15;;;;;;;17.00;7.40;;;;;;;;;;5016827;28;20211;-44
2023/04/10 00:10:42;;;;;;;11.30;7.03;;;;;;;;;;5016595;28;20681;-44
2023/04/10 00:13:09;;;;;;;11.73;6.00;;;;;;;;;;5016730;28;20205;-44
2023/04/10 00:15:36;;;;;;;6.18;3.67;;;;;;;;;;5016513;28;20552;-44
2023/04/10 00:18:03;;;;;;;7.30;3.47;;;;;;;;;;5016741;28;20282;-43
2023/04/10 00:20:30;;;;;;;9.75;4.07;;;;;;;;;;5016563;28;20205;-44
2023/04/10 00:22:58;;;;;;;8.32;4.28;;;;;;;;;;5015489;28;20264;-44
2023/04/10 00:25:25;;;;;;;8.00;4.53;;;;;;;;;;5016298;28;20667;-43
2023/04/10 00:27:53;;;;;;;6.13;3.88;;;;;;;;;;5016203;28;20643;-43
2023/04/10 00:30:20;;;;;;;10.15;4.65;;;;;;;;;;5016519;28;20659;-44
2023/04/10 00:32:47;;;;;;;5.93;4.30;;;;;;;;;;5016599;28;20583;-43
2023/04/10 00:35:15;;;;;;;6.78;4.22;;;;;;;;;;5016121;28;20205;-44
2023/04/10 00:37:42;;;;;;;7.07;4.60;;;;;;;;;;5016632;28;20218;-45
2023/04/10 00:40:10;;;;;;;10.23;5.47;;;;;;;;;;5016023;28;20202;-44
2023/04/10 00:42:37;;;;;;;7.68;4.85;;;;;;;;;;5015932;28;20205;-44
2023/04/10 00:45:06;;;;;;;12.15;6.00;;;;;;;;;;5016060;28;20212;-44
2023/04/10 00:47:33;;;;;;;14.05;6.72;;;;;;;;;;5015791;28;20212;-43
2023/04/10 00:50:01;;;;;;;22.90;10.57;;;;;;;;;;5014979;28;20558;-44
2023/04/10 00:52:28;;;;;;;11.38;5.82;;;;;;;;;;4998834;28;20197;-44
2023/04/10 00:54:55;;;;;;;10.25;5.55;;;;;;;;;;5003872;28;20193;-44
2023/04/10 00:57:22;;;;;;;12.15;5.35;;;;;;;;;;5017877;28;20201;-44
2023/04/10 00:59:50;;;;;;;10.05;5.13;;;;;;;;;;5017638;28;20649;-45
2023/04/10 01:02:18;;;;;;;10.32;5.25;;;;;;;;;;5035228;28;20644;-43
2023/04/10 01:04:46;;;;;;;8.65;5.22;;;;;;;;;;5035310;28;20208;-44
2023/04/10 01:07:19;;;;;;;10.18;5.68;;;;;;;;;;5035304;28;20720;-44
2023/04/10 01:10:11;;;;;;;6.20;4.15;;;;;;;;;;5017751;28;20217;-47
2023/04/10 01:13:04;;;;;;;7.75;4.88;;;;;;;;;;5035463;28;20200;-45
2023/04/10 01:15:40;;;;;;;8.07;4.60;;;;;;;;;;5035689;28;20200;-44
2023/04/10 01:18:28;;;;;;;9.82;5.07;;;;;;;;;;5017112;28;20616;-44
2023/04/10 01:20:58;;;;;;;6.80;4.57;;;;;;;;;;4998318;28;20205;-43
2023/04/10 01:23:35;;;;;;;6.57;4.15;;;;;;;;;;5014626;28;20209;-45
2023/04/10 01:26:03;;;;;;;6.07;4.22;;;;;;;;;;5014017;28;20585;-44
2023/04/10 01:28:56;;;;;;;8.73;4.97;;;;;;;;;;5024461;28;20220;-44
2023/04/10 01:32:17;;;;;;;9.23;4.97;;;;;;;;;;5013660;28;20241;-44
2023/04/10 01:34:45;;;;;;;5.93;4.05;;;;;;;;;;4973807;28;20619;-43
2023/04/10 01:37:17;;;;;;;8.52;4.63;;;;;;;;;;4957869;28;20610;-45
2023/04/10 01:39:47;;;;;;;7.00;4.15;;;;;;;;;;4957739;28;20249;-44
2023/04/10 01:42:18;;;;;;;5.97;4.13;;;;;;;;;;4990231;28;20214;-44
2023/04/10 01:44:46;;;;;;;7.20;4.40;;;;;;;;;;4973895;28;20298;-43
2023/04/10 01:47:16;;;;;;;7.38;4.32;;;;;;;;;;4957705;28;20202;-44
2023/04/10 01:49:46;;;;;;;7.68;4.50;;;;;;;;;;4957845;28;20232;-44
2023/04/10 01:52:14;;;;;;;6.22;4.05;;;;;;;;;;4973812;28;20202;-44
2023/04/10 01:54:47;;;;;;;5.32;3.30;;;;;;;;;;4958330;28;20210;-43
2023/04/10 01:57:21;;;;;;;6.50;3.95;;;;;;;;;;4973983;28;20265;-44
2023/04/10 01:59:54;;;;;;;4.78;3.45;;;;;;;;;;4973570;28;20258;-43
2023/04/10 02:02:22;;;;;;;5.80;3.30;;;;;;;;;;4989587;28;20270;-44
2023/04/10 02:04:50;;;;;;;4.55;3.45;;;;;;;;;;4957252;28;20198;-44
2023/04/10 02:07:30;;;;;;;7.03;3.35;;;;;;;;;;4989396;28;20253;-45
2023/04/10 02:10:16;;;;;;;4.00;2.72;;;;;;;;;;5002382;28;20634;-44
2023/04/10 02:12:54;;;;;;;5.72;3.50;;;;;;;;;;5016851;28;20193;-44
2023/04/10 02:15:23;;;;;;;5.43;3.60;;;;;;;;;;5034048;28;20646;-44
2023/04/10 02:17:50;;;;;;;4.30;3.17;;;;;;;;;;5000520;28;20211;-44
2023/04/10 02:20:17;;;;;;;4.35;3.13;;;;;;;;;;5016441;28;20701;-43
2023/04/10 02:22:46;;;;;;;4.78;3.50;;;;;;;;;;5034169;28;20200;-44
2023/04/10 02:25:13;;;;;;;5.07;3.28;;;;;;;;;;5031202;28;20240;-45
2023/04/10 02:27:40;;;;;;;5.70;3.33;;;;;;;;;;5013059;28;20289;-44
2023/04/10 02:30:08;;;;;;;6.13;3.75;;;;;;;;;;5013109;28;20206;-44
2023/04/10 02:32:35;;;;;;;3.95;3.00;;;;;;;;;;5013143;28;20237;-44
2023/04/10 02:35:06;;;;;;;3.08;2.50;;;;;;;;;;5013249;28;20209;-44
2023/04/10 02:37:36;;;;;;;6.13;3.05;;;;;;;;;;5012766;28;20663;-44
2023/04/10 02:40:04;;;;;;;4.68;2.83;;;;;;;;;;5012833;28;20221;-43
2023/04/10 02:42:41;;;;;;;3.97;2.95;;;;;;;;;;5044633;28;20264;-44
2023/04/10 02:45:09;;;;;;;3.95;2.88;;;;;;;;;;5032098;28;20540;-44
2023/04/10 02:47:40;;;;;;;4.63;3.17;;;;;;;;;;5032609;28;20670;-44
2023/04/10 02:50:08;;;;;;;4.05;2.75;;;;;;;;;;5033507;28;20787;-44
2023/04/10 02:52:38;;;;;;;3.83;2.72;;;;;;;;;;5032859;28;20196;-43
2023/04/10 02:55:05;;;;;;;3.72;2.75;;;;;;;;;;5015806;28;20600;-43
2023/04/10 02:57:35;;;;;;;5.78;3.13;;;;;;;;;;5032293;28;20204;-43
2023/04/10 03:00:04;;;;;;;6.05;3.35;;;;;;;;;;5032123;28;20640;-44
2023/04/10 03:02:52;;;;;;;5.93;3.25;;;;;;;;;;5033494;28;20262;-43
2023/04/10 03:05:20;;;;;;;6.28;3.40;;;;;;;;;;5032396;28;20669;-44
2023/04/10 03:07:47;;;;;;;4.30;2.83;;;;;;;;;;5032539;28;20219;-43
2023/04/10 03:10:15;;;;;;;3.65;2.65;;;;;;;;;;5029624;28;20287;-44
2023/04/10 03:12:43;;;;;;;3.05;2.42;;;;;;;;;;5013560;28;20202;-45
2023/04/10 03:15:10;;;;;;;4.70;2.65;;;;;;;;;;5013414;28;20197;-43
2023/04/10 03:17:37;;;;;;;4.10;2.88;;;;;;;;;;5012249;28;20271;-45
2023/04/10 03:20:07;;;;;;;3.70;2.50;;;;;;;;;;5013477;28;20291;-44
2023/04/10 03:22:35;;;;;;;3.58;2.72;;;;;;;;;;5028677;28;20209;-45
2023/04/10 03:25:02;;;;;;;3.58;2.58;;;;;;;;;;5028680;28;20201;-44
2023/04/10 03:27:33;;;;;;;4.23;2.73;;;;;;;;;;5011962;28;20212;-44
2023/04/10 03:30:01;;;;;;;5.00;3.10;;;;;;;;;;5012291;28;20248;-44
2023/04/10 03:32:37;;;;;;;4.80;3.07;;;;;;;;;;5012083;28;20236;-44
2023/04/10 03:35:05;;;;;;;4.63;2.95;;;;;;;;;;5028761;28;20255;-44
2023/04/10 03:37:32;;;;;;;3.75;2.45;;;;;;;;;;5013685;28;20213;-44
2023/04/10 03:40:00;;;;;;;3.75;2.72;;;;;;;;;;5032583;28;20224;-44
2023/04/10 03:42:28;;;;;;;3.90;3.15;;;;;;;;;;5031717;28;20212;-44
2023/04/10 03:44:55;;;;;;;2.80;2.17;;;;;;;;;;5031476;28;20544;-43
2023/04/10 03:47:23;;;;;;;4.90;2.97;;;;;;;;;;5015371;28;20212;-46
2023/04/10 03:49:51;;;;;;;3.57;2.37;;;;;;;;;;5031734;28;20259;-45
2023/04/10 03:52:19;;;;;;;3.53;2.83;;;;;;;;;;5015357;28;20201;-46
2023/04/10 03:54:46;;;;;;;3.72;2.78;;;;;;;;;;4998881;28;20618;-44
2023/04/10 03:57:23;;;;;;;2.93;2.27;;;;;;;;;;5017603;28;20572;-44
2023/04/10 03:59:54;;;;;;;3.80;2.42;;;;;;;;;;5017544;28;20693;-45
2023/04/10 04:02:21;;;;;;;4.00;2.58;;;;;;;;;;5034474;28;20208;-44
2023/04/10 04:04:49;;;;;;;4.03;2.42;;;;;;;;;;5034718;28;20209;-44
2023/04/10 04:07:39;;;;;;;4.97;2.90;;;;;;;;;;5036113;28;20205;-44
2023/04/10 04:10:19;;;;;;;3.33;2.33;;;;;;;;;;5035150;28;20269;-43
2023/04/10 04:12:52;;;;;;;4.95;2.70;;;;;;;;;;5018589;28;20605;-44
2023/04/10 04:15:25;;;;;;;3.78;2.65;;;;;;;;;;4987512;28;20247;-43
2023/04/10 04:18:12;;;;;;;3.58;2.17;;;;;;;;;;5024972;28;20209;-43
2023/04/10 04:20:44;;;;;;;3.53;2.73;;;;;;;;;;5018723;28;20235;-43
2023/04/10 04:23:32;;;;;;;5.45;2.95;;;;;;;;;;5015432;28;20204;-44
2023/04/10 04:26:25;;;;;;;3.40;2.55;;;;;;;;;;5034869;28;20205;-44
2023/04/10 04:29:11;;;;;;;3.17;2.00;;;;;;;;;;5036023;28;20204;-44
2023/04/10 04:31:43;;;;;;;3.23;2.57;;;;;;;;;;5036443;28;20240;-44
2023/04/10 04:34:21;;;;;;;4.50;3.30;;;;;;;;;;5018307;28;20207;-44
2023/04/10 04:37:23;;;;;;;3.92;2.65;;;;;;;;;;4994585;28;20212;-44
2023/04/10 04:40:09;;;;;;;4.75;2.90;;;;;;;;;;5032623;28;20232;-44
2023/04/10 04:42:55;;;;;;;4.10;2.65;;;;;;;;;;5021450;28;20201;-46
2023/04/10 04:45:44;;;;;;;4.18;2.92;;;;;;;;;;5018632;28;20216;-44
2023/04/10 04:48:27;;;;;;;4.25;2.65;;;;;;;;;;5018625;28;20291;-44
2023/04/10 04:51:17;;;;;;;3.38;2.55;;;;;;;;;;5025770;28;20213;-44
2023/04/10 04:53:54;;;;;;;3.80;3.10;;;;;;;;;;5018454;28;20215;-45
2023/04/10 04:56:35;;;;;;;4.75;3.00;;;;;;;;;;5018169;28;20201;-44
2023/04/10 04:59:21;;;;;;;3.47;2.75;;;;;;;;;;5035440;28;20689;-44
2023/04/10 05:02:15;;;;;;;3.83;2.75;;;;;;;;;;5019781;28;20201;-44
2023/04/10 05:04:55;;;;;;;5.20;2.75;;;;;;;;;;5017731;28;20188;-45
2023/04/10 05:07:39;;;;;;;5.32;2.72;;;;;;;;;;5017412;28;20209;-44
2023/04/10 05:10:24;;;;;;;4.57;2.85;;;;;;;;;;5035826;28;20216;-44
2023/04/10 05:13:11;;;;;;;3.40;2.55;;;;;;;;;;5017898;28;20196;-44
2023/04/10 05:15:46;;;;;;;3.72;2.83;;;;;;;;;;5017633;28;20679;-45
2023/04/10 05:18:36;;;;;;;5.68;3.65;;;;;;;;;;5020955;28;20197;-45
2023/04/10 05:21:26;;;;;;;3.78;2.70;;;;;;;;;;5027036;28;20258;-44
2023/04/10 05:24:21;;;;;;;3.83;3.13;;;;;;;;;;5017298;28;20255;-46
2023/04/10 05:27:08;;;;;;;3.50;2.70;;;;;;;;;;5035190;28;20212;-45
2023/04/10 05:30:02;;;;;;;5.45;3.15;;;;;;;;;;5017663;28;20201;-45
2023/04/10 05:32:46;;;;;;;5.85;3.00;;;;;;;;;;5035627;28;20554;-44
2023/04/10 05:35:43;;;;;;;4.28;3.22;;;;;;;;;;4981138;28;20206;-44
2023/04/10 05:38:23;;;;;;;4.57;3.22;;;;;;;;;;5017561;28;20287;-44
2023/04/10 05:41:07;;;;;;;3.78;2.90;;;;;;;;;;5034812;28;20224;-44
2023/04/10 05:43:56;;;;;;;5.53;3.20;;;;;;;;;;5017434;28;20263;-44
2023/04/10 05:46:32;;;;;;;3.92;2.78;;;;;;;;;;5035090;28;20208;-44
2023/04/10 05:49:20;;;;;;;5.70;2.92;;;;;;;;;;5017111;28;20232;-45
2023/04/10 05:51:59;;;;;;;3.72;2.65;;;;;;;;;;5016908;28;20258;-44
2023/04/10 05:54:59;;;;;;;3.67;2.67;;;;;;;;;;4954356;29;20234;-44
2023/04/10 05:57:40;;;;;;;4.85;2.97;;;;;;;;;;4954291;29;20209;-44
2023/04/10 06:00:39;;;;;;;5.03;2.95;;;;;;;;;;4943391;29;20595;-44
2023/04/10 06:03:29;;;;;;;3.88;2.63;;;;;;;;;;4954541;29;20203;-45
2023/04/10 06:06:01;;;;;;;3.80;3.05;;;;;;;;;;4954400;29;20206;-44
2023/04/10 06:08:29;;;;;;;4.78;2.90;;;;;;;;;;4954025;29;20639;-45
2023/04/10 06:10:56;;;;;;;3.88;2.65;;;;;;;;;;4953958;29;20208;-44
2023/04/10 06:13:26;;;;;;;3.75;2.55;;;;;;;;;;4952369;29;20211;-47
2023/04/10 06:15:57;;;;;;;5.57;3.67;;;;;;;;;;4934316;29;20287;-53
2023/04/10 06:18:25;;;;;;;3.78;2.80;;;;;;;;;;4936604;29;20200;-45
2023/04/10 06:20:52;;;;;;;4.22;2.88;;;;;;;;;;4935549;29;20703;-43
2023/04/10 06:23:20;;;;;;;6.25;3.03;;;;;;;;;;4936338;29;20203;-44
2023/04/10 06:25:47;;;;;;;6.13;3.30;;;;;;;;;;4936379;29;20207;-50
2023/04/10 06:28:14;;;;;;;4.22;2.80;;;;;;;;;;4947426;29;20200;-44
2023/04/10 06:30:45;;;;;;;3.22;2.50;;;;;;;;;;4989679;28;20300;-44
2023/04/10 06:33:12;;;;;;;3.33;2.80;;;;;;;;;;5015215;28;20696;-44
2023/04/10 06:35:42;;;;;;;3.22;2.67;;;;;;;;;;5013010;28;20220;-43
2023/04/10 06:38:11;;;;;;;3.58;2.40;;;;;;;;;;5010735;28;20228;-45
2023/04/10 06:40:40;;;;;;;3.80;2.50;;;;;;;;;;4993569;28;20235;-45
2023/04/10 06:43:07;;;;;;;2.72;2.20;;;;;;;;;;5031403;28;20771;-45
2023/04/10 06:45:37;;;;;;;2.80;2.50;;;;;;;;;;5011496;28;20767;-45
2023/04/10 06:48:05;;;;;;;3.28;2.50;;;;;;;;;;5029459;28;20216;-49
2023/04/10 06:50:32;;;;;;;2.95;2.22;;;;;;;;;;5032749;28;20228;-45
2023/04/10 06:52:59;;;;;;;2.90;2.58;;;;;;;;;;5013438;28;20712;-48
2023/04/10 06:55:26;;;;;;;2.83;2.17;;;;;;;;;;5013899;28;20304;-45
2023/04/10 06:57:55;;;;;;;3.90;2.85;;;;;;;;;;5031639;28;20219;-46
2023/04/10 07:00:22;;;;;;;2.58;2.38;;;;;;;;;;5029917;28;20232;-47
2023/04/10 07:02:50;;;;;;;3.70;2.28;;;;;;;;;;5030423;28;20212;-45
2023/04/10 07:05:17;;;;;;;2.83;2.00;;;;;;;;;;5031174;28;20216;-45
2023/04/10 07:07:46;;;;;;;3.65;2.13;;;;;;;;;;5032021;28;20213;-45
2023/04/10 07:10:13;;;;;;;3.33;2.25;;;;;;;;;;5032394;28;20574;-44
2023/04/10 07:12:40;;;;;;;3.38;2.72;;;;;;;;;;5032540;28;20227;-47
2023/04/10 07:15:08;;;;;;;3.70;2.58;;;;;;;;;;5032125;28;20220;-48
2023/04/10 07:17:35;;;;;;;4.05;2.28;;;;;;;;;;5032544;28;20235;-47
2023/04/10 07:20:02;;;;;;;4.97;2.65;;;;;;;;;;5032409;28;20243;-45
2023/04/10 07:22:30;;;;;;;5.22;2.80;;;;;;;;;;5032108;28;20217;-50
2023/04/10 07:24:57;;;;;;;2.97;2.42;;;;;;;;;;5032174;28;20219;-47
2023/04/10 07:27:25;;;;;;;4.05;3.00;;;;;;;;;;5032374;28;20229;-46
2023/04/10 07:29:53;;;;;;;5.13;2.85;;;;;;;;;;5032280;28;20220;-46
2023/04/10 07:32:22;;;;;;;3.45;2.70;;;;;;;;;;5034415;28;20236;-48
2023/04/10 07:34:49;;;;;;;3.90;2.50;;;;;;;;;;5036567;28;20212;-45
2023/04/10 07:37:17;;;;;;;3.40;2.20;;;;;;;;;;5036607;28;20573;-49
2023/04/10 07:39:44;;;;;;;3.75;2.38;;;;;;;;;;5036019;28;20784;-47
2023/04/10 07:42:11;;;;;;;3.85;2.50;;;;;;;;;;5036178;28;20225;-46
2023/04/10 07:44:38;;;;;;;3.17;2.33;;;;;;;;;;5035744;28;20632;-45
2023/04/10 07:47:05;;;;;;;3.72;2.42;;;;;;;;;;5036126;28;20697;-47
2023/04/10 07:49:32;;;;;;;3.45;2.50;;;;;;;;;;5036241;28;20220;-44
2023/04/10 07:52:00;;;;;;;4.07;2.63;;;;;;;;;;5036010;28;20248;-46
2023/04/10 07:54:30;;;;;;;2.97;2.42;;;;;;;;;;5036057;28;20244;-45
2023/04/10 07:56:58;;;;;;;3.92;2.60;;;;;;;;;;5035858;28;20236;-46
2023/04/10 07:59:26;;;;;;;3.30;2.28;;;;;;;;;;5035018;28;20300;-45
2023/04/10 08:01:54;;;;;;;5.43;3.03;;;;;;;;;;5035421;28;20229;-47
2023/04/10 08:04:21;;;;;;;3.72;2.63;;;;;;;;;;5035606;28;20217;-46
2023/04/10 08:06:49;;;;;;;3.60;2.53;;;;;;;;;;5035874;28;20267;-45
2023/04/10 08:09:16;;;;;;;4.20;2.83;;;;;;;;;;5035689;28;20217;-45
2023/04/10 08:11:43;;;;;;;3.35;2.40;;;;;;;;;;5035926;28;20239;-46
2023/04/10 08:14:12;;;;;;;4.43;2.40;;;;;;;;;;5035156;28;20260;-45
2023/04/10 08:16:44;;;;;;;3.10;2.55;;;;;;;;;;5016015;28;20237;-46
2023/04/10 08:19:11;;;;;;;3.53;2.22;;;;;;;;;;5029595;28;20307;-46
2023/04/10 08:21:39;;;;;;;3.35;2.50;;;;;;;;;;5033737;28;20288;-47
2023/04/10 08:24:06;;;;;;;4.45;2.90;;;;;;;;;;5034759;28;20220;-45
2023/04/10 08:26:33;;;;;;;5.88;2.47;;;;;;;;;;5035085;28;20315;-45
2023/04/10 08:29:00;;;;;;;2.45;2.20;;;;;;;;;;5032736;28;20728;-46
2023/04/10 08:31:28;;;;;;;6.10;2.28;;;;;;;;;;5034772;28;20241;-48
2023/04/10 08:33:55;;;;;;;4.22;2.83;;;;;;;;;;5034982;28;20546;-46
2023/04/10 08:36:23;;;;;;;3.92;2.10;;;;;;;;;;5033969;28;20216;-47
2023/04/10 08:38:50;;;;;;;3.67;2.85;;;;;;;;;;5035276;28;20232;-45
2023/04/10 08:41:18;;;;;;;2.90;2.45;;;;;;;;;;5035201;28;20236;-49
2023/04/10 08:43:46;;;;;;;4.80;2.78;;;;;;;;;;5027852;28;20213;-47
2023/04/10 08:46:13;;;;;;;2.80;2.42;;;;;;;;;;5035219;28;20228;-43
2023/04/10 08:48:46;;;;;;;4.53;2.65;;;;;;;;;;5034919;28;20721;-45
2023/04/10 08:51:18;;;;;;;3.97;2.80;;;;;;;;;;5033052;28;20742;-45
2023/04/10 08:53:50;;;;;;;2.58;2.38;;;;;;;;;;5034968;28;20220;-48
2023/04/10 08:56:18;;;;;;;3.22;2.50;;;;;;;;;;5035130;28;20228;-45
2023/04/10 08:58:45;;;;;;;4.18;2.72;;;;;;;;;;5033814;28;20575;-47
2023/04/10 09:01:12;;;;;;;3.03;2.42;;;;;;;;;;5009547;28;20589;-47
2023/04/10 09:03:39;;;;;;;2.92;2.20;;;;;;;;;;5027919;28;20332;-47
2023/04/10 09:06:07;;;;;;;3.10;2.50;;;;;;;;;;5034221;28;20232;-47
2023/04/10 09:08:34;;;;;;;4.30;2.50;;;;;;;;;;5032720;28;20681;-48
2023/04/10 09:11:04;;;;;;;2.33;2.00;;;;;;;;;;5032698;28;20220;-47
2023/04/10 09:13:38;;;;;;;2.75;2.15;;;;;;;;;;5032440;28;20232;-48
2023/04/10 09:16:07;;;;;;;2.33;2.10;;;;;;;;;;5032286;28;20232;-46
2023/04/10 09:18:44;;;;;;;3.53;2.45;;;;;;;;;;5033980;28;20259;-46
2023/04/10 09:21:18;;;;;;;3.45;2.60;;;;;;;;;;5034217;28;20251;-45
2023/04/10 09:23:46;;;;;;;2.70;1.85;;;;;;;;;;5031509;28;20270;-47
2023/04/10 09:26:24;;;;;;;2.92;2.42;;;;;;;;;;5034510;28;20232;-47
2023/04/10 09:29:02;;;;;;;2.92;2.28;;;;;;;;;;5033593;28;20240;-47
2023/04/10 09:31:30;;;;;;;4.65;2.25;;;;;;;;;;5033233;28;20244;-46
2023/04/10 09:34:16;;;;;;;3.28;2.00;;;;;;;;;;5034161;28;20227;-48
2023/04/10 09:36:53;;;;;;;3.83;1.85;;;;;;;;;;5034057;28;20227;-46
2023/04/10 09:39:20;;;;;;;2.83;1.90;;;;;;;;;;5051537;28;20578;-51
2023/04/10 09:41:56;;;;;;;3.15;1.92;;;;;;;;;;5053823;28;20231;-50
2023/04/10 09:44:34;;;;;;;3.03;1.70;;;;;;;;;;5051859;28;20250;-45
2023/04/10 09:47:15;;;;;;;2.13;1.42;;;;;;;;;;5034151;28;20294;-49
2023/04/10 09:49:48;;;;;;;2.53;1.67;;;;;;;;;;5013852;28;20736;-51
2023/04/10 09:52:25;;;;;;;2.22;1.65;;;;;;;;;;5026847;28;20220;-54
2023/04/10 09:54:53;;;;;;;1.25;1.08;;;;;;;;;;5031868;28;20231;-45
2023/04/10 09:57:21;;;;;;;1.95;1.45;;;;;;;;;;5032261;28;20567;-47
2023/04/10 09:59:52;;;;;;;2.22;1.48;;;;;;;;;;5031210;28;20223;-45
2023/04/10 10:02:21;;;;;;;2.20;1.63;;;;;;;;;;5031901;28;20237;-47
2023/04/10 10:04:49;;;;;;;2.08;1.48;;;;;;;;;;5029579;28;20220;-49
2023/04/10 10:07:19;;;;;;;1.67;1.30;;;;;;;;;;5033318;28;20271;-48
2023/04/10 10:09:47;;;;;;;1.38;1.10;;;;;;;;;;5033205;28;20228;-45
2023/04/10 10:12:29;;;;;;;2.72;1.83;;;;;;;;;;5033450;28;20224;-47
2023/04/10 10:15:00;;;;;;;2.65;1.55;;;;;;;;;;5032210;28;20217;-47
2023/04/10 10:17:31;;;;;;;2.92;1.67;;;;;;;;;;5014629;28;20263;-44
2023/04/10 10:20:04;;;;;;;1.98;1.33;;;;;;;;;;5030596;28;20570;-55
2023/04/10 10:22:31;;;;;;;2.55;1.38;;;;;;;;;;5030442;28;20251;-45
2023/04/10 10:24:59;;;;;;;2.00;1.45;;;;;;;;;;5028117;28;20216;-52
2023/04/10 10:27:34;;;;;;;2.05;1.60;;;;;;;;;;5013850;28;20755;-46
2023/04/10 10:30:02;;;;;;;3.05;1.60;;;;;;;;;;5013710;28;20216;-46
2023/04/10 10:32:44;;;;;;;1.45;1.30;;;;;;;;;;5031903;28;20629;-51
2023/04/10 10:35:11;;;;;;;1.63;1.33;;;;;;;;;;5029830;28;20358;-49
2023/04/10 10:37:39;;;;;;;1.92;1.45;;;;;;;;;;5028647;28;20224;-47
2023/04/10 10:40:15;;;;;;;1.55;1.27;;;;;;;;;;5036617;28;20239;-49
2023/04/10 10:42:55;;;;;;;2.17;1.50;;;;;;;;;;4995564;28;20259;-49
2023/04/10 10:45:45;;;;;;;2.10;1.35;;;;;;;;;;5013492;28;20286;-47
2023/04/10 10:48:13;;;;;;;2.53;1.70;;;;;;;;;;5012225;28;20228;-48
2023/04/10 10:50:57;;;;;;;2.90;1.77;;;;;;;;;;5026608;28;20228;-49
2023/04/10 10:53:45;;;;;;;2.40;1.80;;;;;;;;;;5032816;28;20258;-47
2023/04/10 10:56:35;;;;;;;2.78;1.70;;;;;;;;;;5032722;28;20228;-48
2023/04/10 10:59:02;;;;;;;2.55;1.58;;;;;;;;;;5031194;28;20258;-46
2023/04/10 11:01:29;;;;;;;3.80;1.55;;;;;;;;;;5051013;28;20267;-46
2023/04/10 11:03:58;;;;;;;3.63;1.92;;;;;;;;;;5032802;28;20303;-45
2023/04/10 11:06:47;;;;;;;4.43;1.90;;;;;;;;;;5031199;28;20235;-44
2023/04/10 11:09:43;;;;;;;2.17;1.40;;;;;;;;;;5032004;28;20221;-46
2023/04/10 11:12:10;;;;;;;1.90;1.38;;;;;;;;;;5031121;28;20743;-49
2023/04/10 11:14:39;;;;;;;5.00;2.90;;;;;;;;;;5029622;28;20212;-48
2023/04/10 11:17:06;;;;;;;4.15;2.13;;;;;;;;;;5031684;28;20236;-47
2023/04/10 11:19:56;;;;;;;2.97;2.13;;;;;;;;;;5030945;28;20272;-50
2023/04/10 11:22:24;;;;;;;1.58;1.30;;;;;;;;;;5028045;28;20311;-47
2023/04/10 11:24:58;;;;;;;1.75;1.52;;;;;;;;;;5031118;28;20228;-48
2023/04/10 11:27:55;;;;;;;2.13;1.73;;;;;;;;;;5028602;28;20568;-47
2023/04/10 11:30:33;;;;;;;2.50;2.05;;;;;;;;;;5024613;28;20271;-53
2023/04/10 11:33:01;;;;;;;2.90;1.88;;;;;;;;;;5010539;28;20212;-46
2023/04/10 11:35:30;;;;;;;2.58;1.67;;;;;;;;;;5007935;28;20209;-47
2023/04/10 11:38:07;;;;;;;2.38;1.55;;;;;;;;;;5011907;28;20225;-46
2023/04/10 11:40:35;;;;;;;2.78;1.65;;;;;;;;;;5010716;28;20220;-46
2023/04/10 11:43:14;;;;;;;2.28;2.00;;;;;;;;;;5011352;28;20229;-49
2023/04/10 11:45:41;;;;;;;2.00;1.70;;;;;;;;;;5008584;28;20244;-51
2023/04/10 11:48:08;;;;;;;2.03;1.58;;;;;;;;;;5012099;28;20221;-50
2023/04/10 11:50:35;;;;;;;2.08;1.63;;;;;;;;;;5011602;28;20229;-46
2023/04/10 11:53:18;;;;;;;2.50;1.77;;;;;;;;;;5012885;28;20243;-50
2023/04/10 11:55:46;;;;;;;2.28;1.75;;;;;;;;;;5010920;28;20221;-46
2023/04/10 11:58:26;;;;;;;2.80;1.80;;;;;;;;;;5010792;28;20224;-51
2023/04/10 12:01:03;;;;;;;2.63;1.80;;;;;;;;;;5017786;28;20308;-49
2023/04/10 12:03:31;;;;;;;2.58;1.70;;;;;;;;;;5011863;28;20315;-47
2023/04/10 12:05:59;;;;;;;2.00;1.65;;;;;;;;;;5011684;28;20224;-43
2023/04/10 12:08:37;;;;;;;2.15;1.73;;;;;;;;;;5013270;28;20225;-45
2023/04/10 12:11:05;;;;;;;2.10;1.65;;;;;;;;;;5010403;28;20227;-47
2023/04/10 12:13:32;;;;;;;2.45;2.00;;;;;;;;;;5012476;28;20233;-45
2023/04/10 12:16:02;;;;;;;2.80;1.63;;;;;;;;;;5009245;28;20240;-44
2023/04/10 12:18:29;;;;;;;2.22;1.70;;;;;;;;;;5026778;28;20253;-48
2023/04/10 12:20:58;;;;;;;2.55;1.85;;;;;;;;;;5011932;28;20225;-42
2023/04/10 12:23:26;;;;;;;1.63;1.50;;;;;;;;;;5013988;28;20721;-43
2023/04/10 12:26:09;;;;;;;2.13;1.50;;;;;;;;;;5014287;28;20225;-47
2023/04/10 12:28:39;;;;;;;2.78;2.10;;;;;;;;;;5013625;28;20291;-42
2023/04/10 12:31:07;;;;;;;8.40;4.18;;;;;;;;;;5018706;28;20248;-42
2023/04/10 12:33:34;;;;;;;9.27;6.07;;;;;;;;;;5033549;28;20768;-45
2023/04/10 12:36:02;;;;;;;4.57;2.55;;;;;;;;;;5033882;28;20221;-43
2023/04/10 12:38:36;;;;;;;3.75;3.05;;;;;;;;;;5017004;28;20693;-43
2023/04/10 12:41:03;;;;;;;2.85;1.70;;;;;;;;;;5033877;28;20244;-46
2023/04/10 12:43:32;;;;;;;2.75;1.60;;;;;;;;;;5033361;28;20622;-44
2023/04/10 12:45:59;;;;;;;1.90;1.50;;;;;;;;;;5033858;28;20232;-44
2023/04/10 12:48:27;;;;;;;2.30;1.73;;;;;;;;;;5033901;28;20716;-44
2023/04/10 12:50:54;;;;;;;4.20;1.80;;;;;;;;;;5030697;28;20236;-44
2023/04/10 12:53:21;;;;;;;10.30;5.50;;;;;;;;;;5032812;28;20744;-46
2023/04/10 12:56:05;;;;;;;1.40;1.15;;;;;;;;;;5031815;28;20220;-43
2023/04/10 12:58:32;;;;;;;1.58;1.27;;;;;;;;;;5032822;28;20302;-43
2023/04/10 13:01:08;;;;;;;1.30;1.20;;;;;;;;;;5034629;28;20213;-44
2023/04/10 13:03:36;;;;;;;2.30;1.40;;;;;;;;;;5034583;28;20225;-43
2023/04/10 13:06:05;;;;;;;2.42;1.70;;;;;;;;;;5033583;28;20236;-44
2023/04/10 13:08:35;;;;;;;6.13;2.78;;;;;;;;;;5034812;28;20324;-43
2023/04/10 13:11:02;;;;;;;5.13;3.00;;;;;;;;;;5005082;28;20276;-44
2023/04/10 13:13:31;;;;;;;13.75;7.65;;;;;;;;;;5034218;28;20229;-44
2023/04/10 13:15:59;;;;;;;2.85;2.30;;;;;;;;;;5034647;28;20217;-46
2023/04/10 13:18:26;;;;;;;4.68;1.95;;;;;;;;;;5034204;28;20323;-46
2023/04/10 13:20:53;;;;;;;4.10;2.08;;;;;;;;;;5025886;28;20229;-44
2023/04/10 13:23:20;;;;;;;1.20;1.10;;;;;;;;;;5026059;28;20693;-44
2023/04/10 13:25:48;;;;;;;1.35;1.20;;;;;;;;;;5033679;28;20217;-46
2023/04/10 13:28:15;;;;;;;2.30;1.50;;;;;;;;;;5034120;28;20221;-45
2023/04/10 13:30:42;;;;;;;1.63;1.40;;;;;;;;;;5033511;28;20727;-50
2023/04/10 13:33:09;;;;;;;1.25;0.95;;;;;;;;;;5034379;28;20286;-46
2023/04/10 13:35:38;;;;;;;0.93;0.82;;;;;;;;;;5034314;28;20251;-44
2023/04/10 13:38:07;;;;;;;1.10;0.93;;;;;;;;;;5034267;28;20217;-47
2023/04/10 13:40:35;;;;;;;1.30;1.08;;;;;;;;;;5033697;28;20228;-47
2023/04/10 13:43:02;;;;;;;1.65;1.25;;;;;;;;;;5033784;28;20238;-45
2023/04/10 13:45:30;;;;;;;1.08;0.98;;;;;;;;;;5033847;28;20236;-45
2023/04/10 13:47:57;;;;;;;1.17;0.77;;;;;;;;;;5033927;28;20857;-47
2023/04/10 13:50:24;;;;;;;1.10;1.00;;;;;;;;;;5031687;28;20221;-48
2023/04/10 13:52:51;;;;;;;1.10;0.80;;;;;;;;;;5028917;28;20590;-47
2023/04/10 13:55:19;;;;;;;1.17;0.85;;;;;;;;;;5033372;28;20228;-45
2023/04/10 13:57:46;;;;;;;1.27;0.90;;;;;;;;;;5029510;28;20210;-45
2023/04/10 14:00:14;;;;;;;1.13;0.90;;;;;;;;;;5013981;28;20584;-45
2023/04/10 14:02:41;;;;;;;0.73;0.73;;;;;;;;;;5017184;28;20304;-45
2023/04/10 14:05:09;;;;;;;0.95;0.52;;;;;;;;;;5033673;28;20616;-44
2023/04/10 14:07:36;;;;;;;1.63;0.90;;;;;;;;;;5033376;28;20224;-52
2023/04/10 14:10:04;;;;;;;0.63;0.63;;;;;;;;;;5032830;28;20220;-45
2023/04/10 14:12:31;;;;;;;0.70;0.70;;;;;;;;;;5033566;28;20221;-45
2023/04/10 14:14:58;;;;;;;0.93;0.75;;;;;;;;;;5033453;28;20291;-45
2023/04/10 14:17:26;;;;;;;2.65;1.25;;;;;;;;;;5033075;28;20697;-45
2023/04/10 14:19:54;;;;;;;1.58;1.25;;;;;;;;;;5033471;28;20612;-47
2023/04/10 14:22:21;;;;;;;2.95;1.50;;;;;;;;;;5032789;28;20282;-50
2023/04/10 14:24:48;;;;;;;1.33;1.23;;;;;;;;;;5032528;28;20236;-47
2023/04/10 14:27:20;;;;;;;2.15;1.27;;;;;;;;;;5013590;28;20565;-49
2023/04/10 14:29:47;;;;;;;1.52;1.10;;;;;;;;;;5022387;28;20221;-46
2023/04/10 14:32:21;;;;;;;1.15;1.05;;;;;;;;;;5032889;28;20298;-45
2023/04/10 14:34:48;;;;;;;1.17;1.00;;;;;;;;;;5052753;28;20250;-45
2023/04/10 14:37:17;;;;;;;1.30;1.20;;;;;;;;;;5033397;28;20224;-44
2023/04/10 14:39:45;;;;;;;1.40;1.23;;;;;;;;;;5032646;28;20228;-46
2023/04/10 14:42:12;;;;;;;1.30;1.05;;;;;;;;;;5032270;28;20255;-45
2023/04/10 14:44:39;;;;;;;1.20;1.00;;;;;;;;;;5032455;28;20585;-45
2023/04/10 14:47:06;;;;;;;1.05;0.95;;;;;;;;;;5032883;28;20274;-45
2023/04/10 14:49:34;;;;;;;1.25;1.00;;;;;;;;;;5048324;28;20239;-45
2023/04/10 14:52:01;;;;;;;1.73;1.13;;;;;;;;;;5052648;28;20259;-47
2023/04/10 14:54:28;;;;;;;1.02;0.90;;;;;;;;;;5031954;28;20713;-45
2023/04/10 14:56:57;;;;;;;1.63;1.10;;;;;;;;;;5031850;28;20228;-46
2023/04/10 14:59:24;;;;;;;1.48;1.10;;;;;;;;;;5045952;28;20576;-49
2023/04/10 15:01:52;;;;;;;2.03;1.27;;;;;;;;;;5030868;28;20315;-48
2023/04/10 15:04:20;;;;;;;1.30;1.10;;;;;;;;;;5030627;28;20226;-53
2023/04/10 15:06:47;;;;;;;1.13;0.90;;;;;;;;;;5013680;28;21041;-48
2023/04/10 15:09:14;;;;;;;1.55;1.27;;;;;;;;;;5031837;28;20224;-46
2023/04/10 15:11:41;;;;;;;1.08;0.98;;;;;;;;;;5030767;28;20304;-45